createdAt,value
2016-04-16T00:00:01.475Z,0
2016-04-16T00:01:01.508Z,0
2016-04-16T00:02:01.527Z,0
2016-04-16T00:03:01.546Z,0
2016-04-16T00:04:01.564Z,0
2016-04-16T00:05:01.583Z,0
2016-04-16T00:06:01.616Z,0
2016-04-16T00:07:01.713Z,0
2016-04-16T00:08:01.652Z,0
2016-04-16T00:09:01.874Z,0
2016-04-16T00:10:01.690Z,0
2016-04-16T00:11:01.723Z,0
2016-04-16T00:12:01.851Z,0
2016-04-16T00:13:01.759Z,0
2016-04-16T00:14:01.762Z,0
2016-04-16T00:15:01.796Z,0
2016-04-16T00:16:01.815Z,0
2016-04-16T00:17:01.834Z,0
2016-04-16T00:18:01.852Z,0
2016-04-16T00:19:01.870Z,0
2016-04-16T00:20:01.592Z,0
2016-04-16T00:21:01.922Z,0
2016-04-16T00:22:01.925Z,0
2016-04-16T00:23:01.959Z,0
2016-04-16T00:24:01.978Z,0
2016-04-16T00:25:01.996Z,0
2016-04-16T00:26:02.029Z,0
2016-04-16T00:27:02.048Z,0
2016-04-16T00:28:02.081Z,0
2016-04-16T00:29:02.100Z,0
2016-04-16T00:30:02.103Z,0
2016-04-16T00:31:02.121Z,0
2016-04-16T00:32:02.139Z,0
2016-04-16T00:33:02.157Z,0
2016-04-16T00:34:02.175Z,0
2016-04-16T00:35:02.272Z,0
2016-04-16T00:36:06.119Z,0
2016-04-16T00:37:02.247Z,0
2016-04-16T00:38:02.265Z,0
2016-04-16T00:39:02.283Z,0
2016-04-16T00:40:02.301Z,0
2016-04-16T00:41:02.319Z,0
2016-04-16T00:42:02.197Z,0
2016-04-16T00:43:02.356Z,0
2016-04-16T00:44:02.390Z,0
2016-04-16T00:45:02.408Z,0
2016-04-16T00:46:02.426Z,0
2016-04-16T00:47:05.460Z,0
2016-04-16T00:48:02.463Z,0
2016-04-16T00:49:02.482Z,0
2016-04-16T00:50:02.579Z,0
2016-04-16T00:51:02.534Z,0
2016-04-16T00:52:02.553Z,0
2016-04-16T00:53:02.570Z,0
2016-04-16T00:54:02.590Z,0
2016-04-16T00:55:02.607Z,0
2016-04-16T00:56:02.626Z,0
2016-04-16T00:57:02.645Z,0
2016-04-16T00:58:02.678Z,0
2016-04-16T00:59:02.681Z,0
2016-04-16T01:00:02.730Z,0
2016-04-16T01:01:02.748Z,0
2016-04-16T01:02:02.750Z,0
2016-04-16T01:03:02.769Z,0
2016-04-16T01:04:02.788Z,0
2016-04-16T01:05:02.900Z,0
2016-04-16T01:06:02.825Z,0
2016-04-16T01:07:02.858Z,0
2016-04-16T01:08:02.892Z,0
2016-04-16T01:09:02.894Z,0
2016-04-16T01:10:02.913Z,0
2016-04-16T01:11:02.932Z,0
2016-04-16T01:12:02.949Z,0
2016-04-16T01:13:02.968Z,0
2016-04-16T01:14:03.001Z,0
2016-04-16T01:15:03.005Z,0
2016-04-16T01:16:03.023Z,0
2016-04-16T01:17:03.073Z,0
2016-04-16T01:18:03.090Z,0
2016-04-16T01:19:03.093Z,0
2016-04-16T01:20:03.206Z,0
2016-04-16T01:21:03.145Z,0
2016-04-16T01:22:03.165Z,0
2016-04-16T01:23:03.182Z,0
2016-04-16T01:24:03.201Z,0
2016-04-16T01:25:03.219Z,0
2016-04-16T01:26:03.237Z,0
2016-04-16T01:27:03.255Z,0
2016-04-16T01:28:03.289Z,0
2016-04-16T01:29:03.308Z,0
2016-04-16T01:30:03.326Z,0
2016-04-16T01:31:03.344Z,0
2016-04-16T01:32:03.378Z,0
2016-04-16T01:33:03.381Z,0
2016-04-16T01:34:03.399Z,0
2016-04-16T01:35:03.277Z,0
2016-04-16T01:36:03.436Z,0
2016-04-16T01:37:03.454Z,0
2016-04-16T01:38:03.488Z,0
2016-04-16T01:39:03.507Z,0
2016-04-16T01:40:03.524Z,0
2016-04-16T01:41:03.543Z,0
2016-04-16T01:42:03.577Z,0
2016-04-16T01:43:03.579Z,0
2016-04-16T01:44:03.613Z,0
2016-04-16T01:45:03.616Z,0
2016-04-16T01:46:03.635Z,0
2016-04-16T01:47:03.669Z,0
2016-04-16T01:48:03.672Z,0
2016-04-16T01:49:03.721Z,0
2016-04-16T01:50:03.724Z,0
2016-04-16T01:51:03.757Z,0
2016-04-16T01:52:03.776Z,0
2016-04-16T01:53:03.794Z,0
2016-04-16T01:54:03.812Z,0
2016-04-16T01:55:03.831Z,0
2016-04-16T01:56:03.850Z,0
2016-04-16T01:57:03.868Z,0
2016-04-16T01:58:03.886Z,0
2016-04-16T01:59:03.920Z,0
2016-04-16T02:00:03.922Z,0
2016-04-16T02:01:03.956Z,0
2016-04-16T02:02:03.958Z,0
2016-04-16T02:03:03.997Z,0
2016-04-16T02:04:04.000Z,0
2016-04-16T02:05:04.033Z,0
2016-04-16T02:06:04.051Z,0
2016-04-16T02:07:04.070Z,0
2016-04-16T02:08:04.089Z,0
2016-04-16T02:09:04.106Z,0
2016-04-16T02:10:04.141Z,0
2016-04-16T02:11:04.159Z,0
2016-04-16T02:12:04.162Z,0
2016-04-16T02:13:04.196Z,0
2016-04-16T02:14:04.214Z,0
2016-04-16T02:15:04.233Z,0
2016-04-16T02:16:04.250Z,0
2016-04-16T02:17:04.285Z,0
2016-04-16T02:18:04.302Z,0
2016-04-16T02:19:04.305Z,0
2016-04-16T02:20:04.324Z,0
2016-04-16T02:21:04.374Z,0
2016-04-16T02:22:04.378Z,0
2016-04-16T02:23:04.397Z,0
2016-04-16T02:24:04.430Z,0
2016-04-16T02:25:04.433Z,0
2016-04-16T02:26:04.451Z,0
2016-04-16T02:27:04.470Z,0
2016-04-16T02:28:04.488Z,0
2016-04-16T02:29:04.522Z,0
2016-04-16T02:30:04.526Z,0
2016-04-16T02:31:04.559Z,0
2016-04-16T02:32:04.577Z,0
2016-04-16T02:33:04.595Z,0
2016-04-16T02:34:04.629Z,0
2016-04-16T02:35:04.631Z,0
2016-04-16T02:36:04.650Z,0
2016-04-16T02:37:04.669Z,0
2016-04-16T02:38:04.703Z,0
2016-04-16T02:39:04.721Z,0
2016-04-16T02:40:04.739Z,0
2016-04-16T02:41:04.758Z,0
2016-04-16T02:42:04.775Z,0
2016-04-16T02:43:04.794Z,0
2016-04-16T02:44:04.812Z,0
2016-04-16T02:45:04.887Z,0
2016-04-16T02:46:04.948Z,0
2016-04-16T02:47:05.009Z,0
2016-04-16T02:48:05.086Z,0
2016-04-16T02:49:05.131Z,0
2016-04-16T02:50:05.166Z,0
2016-04-16T02:51:05.200Z,0
2016-04-16T02:52:05.249Z,0
2016-04-16T02:53:05.267Z,0
2016-04-16T02:54:05.317Z,0
2016-04-16T02:55:05.325Z,0
2016-04-16T02:56:05.364Z,0
2016-04-16T02:57:05.389Z,0
2016-04-16T02:58:05.413Z,0
2016-04-16T02:59:05.436Z,0
2016-04-16T03:00:05.457Z,0
2016-04-16T03:01:05.493Z,0
2016-04-16T03:02:05.497Z,0
2016-04-16T03:03:05.378Z,0
2016-04-16T03:04:05.538Z,0
2016-04-16T03:05:05.416Z,0
2016-04-16T03:06:05.592Z,0
2016-04-16T03:07:05.626Z,0
2016-04-16T03:08:05.630Z,0
2016-04-16T03:09:05.665Z,0
2016-04-16T03:10:05.683Z,0
2016-04-16T03:11:05.718Z,0
2016-04-16T03:12:05.737Z,0
2016-04-16T03:13:05.740Z,0
2016-04-16T03:14:05.759Z,0
2016-04-16T03:15:05.776Z,0
2016-04-16T03:16:05.795Z,0
2016-04-16T03:17:05.829Z,0
2016-04-16T03:18:05.847Z,0
2016-04-16T03:19:05.866Z,0
2016-04-16T03:20:05.883Z,0
2016-04-16T03:21:05.950Z,0
2016-04-16T03:22:05.920Z,0
2016-04-16T03:23:05.939Z,0
2016-04-16T03:24:05.957Z,0
2016-04-16T03:25:05.991Z,0
2016-04-16T03:26:06.009Z,0
2016-04-16T03:27:06.012Z,0
2016-04-16T03:28:06.046Z,0
2016-04-16T03:29:06.049Z,0
2016-04-16T03:30:06.083Z,0
2016-04-16T03:31:06.101Z,0
2016-04-16T03:32:06.151Z,0
2016-04-16T03:33:06.154Z,0
2016-04-16T03:34:06.187Z,0
2016-04-16T03:35:06.190Z,0
2016-04-16T03:36:06.207Z,0
2016-04-16T03:37:06.226Z,0
2016-04-16T03:38:06.245Z,0
2016-04-16T03:39:06.248Z,0
2016-04-16T03:40:06.281Z,0
2016-04-16T03:41:06.300Z,0
2016-04-16T03:42:06.318Z,0
2016-04-16T03:43:06.336Z,0
2016-04-16T03:44:06.355Z,0
2016-04-16T03:45:06.232Z,0
2016-04-16T03:46:06.392Z,0
2016-04-16T03:47:06.425Z,0
2016-04-16T03:48:06.428Z,0
2016-04-16T03:49:06.462Z,0
2016-04-16T03:50:06.480Z,0
2016-04-16T03:51:06.498Z,0
2016-04-16T03:52:06.516Z,0
2016-04-16T03:53:06.536Z,0
2016-04-16T03:54:06.569Z,0
2016-04-16T03:55:06.572Z,0
2016-04-16T03:56:06.590Z,0
2016-04-16T03:57:06.655Z,0
2016-04-16T03:58:06.642Z,4
2016-04-16T03:59:06.660Z,4
2016-04-16T04:00:06.679Z,0
2016-04-16T04:01:06.696Z,4
2016-04-16T04:02:06.731Z,4
2016-04-16T04:03:06.734Z,4
2016-04-16T04:04:06.768Z,4
2016-04-16T04:05:06.786Z,4
2016-04-16T04:06:06.648Z,4
2016-04-16T04:07:06.823Z,4
2016-04-16T04:08:06.840Z,4
2016-04-16T04:09:06.859Z,4
2016-04-16T04:10:06.878Z,12
2016-04-16T04:11:06.896Z,12
2016-04-16T04:12:06.930Z,12
2016-04-16T04:13:06.948Z,16
2016-04-16T04:14:07.014Z,20
2016-04-16T04:15:06.984Z,20
2016-04-16T04:16:06.987Z,20
2016-04-16T04:17:07.022Z,20
2016-04-16T04:18:07.055Z,20
2016-04-16T04:19:07.058Z,20
2016-04-16T04:20:07.076Z,24
2016-04-16T04:21:07.111Z,28
2016-04-16T04:22:07.114Z,32
2016-04-16T04:23:07.147Z,32
2016-04-16T04:24:07.166Z,28
2016-04-16T04:25:07.199Z,20
2016-04-16T04:26:07.202Z,24
2016-04-16T04:27:07.219Z,28
2016-04-16T04:28:07.254Z,28
2016-04-16T04:29:07.272Z,32
2016-04-16T04:30:07.291Z,36
2016-04-16T04:31:07.310Z,36
2016-04-16T04:32:07.327Z,40
2016-04-16T04:33:07.346Z,44
2016-04-16T04:34:07.363Z,48
2016-04-16T04:35:07.383Z,56
2016-04-16T04:36:07.416Z,52
2016-04-16T04:37:07.451Z,48
2016-04-16T04:38:07.454Z,48
2016-04-16T04:39:07.471Z,48
2016-04-16T04:40:07.490Z,56
2016-04-16T04:41:07.507Z,72
2016-04-16T04:42:07.526Z,92
2016-04-16T04:43:07.544Z,108
2016-04-16T04:44:07.563Z,116
2016-04-16T04:45:07.597Z,120
2016-04-16T04:46:07.615Z,128
2016-04-16T04:47:07.634Z,132
2016-04-16T04:48:07.651Z,144
2016-04-16T04:49:07.670Z,148
2016-04-16T04:50:07.688Z,148
2016-04-16T04:51:07.847Z,148
2016-04-16T04:52:07.709Z,156
2016-04-16T04:53:07.744Z,160
2016-04-16T04:54:07.778Z,164
2016-04-16T04:55:07.811Z,164
2016-04-16T04:56:07.814Z,172
2016-04-16T04:57:07.832Z,176
2016-04-16T04:58:07.850Z,188
2016-04-16T04:59:07.884Z,200
2016-04-16T05:00:07.888Z,216
2016-04-16T05:01:07.921Z,232
2016-04-16T05:02:07.924Z,252
2016-04-16T05:03:07.958Z,264
2016-04-16T05:04:07.960Z,272
2016-04-16T05:05:07.994Z,276
2016-04-16T05:06:08.074Z,284
2016-04-16T05:07:08.046Z,288
2016-04-16T05:08:08.052Z,284
2016-04-16T05:09:08.086Z,268
2016-04-16T05:10:08.104Z,264
2016-04-16T05:11:08.123Z,272
2016-04-16T05:12:08.125Z,288
2016-04-16T05:13:08.160Z,304
2016-04-16T05:14:08.162Z,304
2016-04-16T05:15:08.196Z,308
2016-04-16T05:16:08.215Z,316
2016-04-16T05:17:08.248Z,304
2016-04-16T05:18:08.266Z,308
2016-04-16T05:19:08.284Z,296
2016-04-16T05:20:08.303Z,300
2016-04-16T05:21:08.415Z,292
2016-04-16T05:22:08.340Z,272
2016-04-16T05:23:08.359Z,268
2016-04-16T05:24:08.376Z,300
2016-04-16T05:25:08.395Z,300
2016-04-16T05:26:08.429Z,304
2016-04-16T05:27:08.447Z,360
2016-04-16T05:28:08.465Z,340
2016-04-16T05:29:08.484Z,296
2016-04-16T05:30:08.502Z,300
2016-04-16T05:31:08.520Z,324
2016-04-16T05:32:08.555Z,276
2016-04-16T05:33:08.558Z,224
2016-04-16T05:34:08.591Z,196
2016-04-16T05:35:08.609Z,208
2016-04-16T05:36:08.627Z,180
2016-04-16T05:37:08.740Z,184
2016-04-16T05:38:08.977Z,184
2016-04-16T05:39:08.682Z,204
2016-04-16T05:40:08.701Z,164
2016-04-16T05:41:08.719Z,148
2016-04-16T05:42:08.738Z,148
2016-04-16T05:43:08.787Z,160
2016-04-16T05:44:08.790Z,300
2016-04-16T05:45:08.932Z,320
2016-04-16T05:46:08.826Z,288
2016-04-16T05:47:08.954Z,288
2016-04-16T05:48:08.862Z,300
2016-04-16T05:49:08.976Z,320
2016-04-16T05:50:08.993Z,292
2016-04-16T05:51:09.059Z,236
2016-04-16T05:52:08.998Z,216
2016-04-16T05:53:09.001Z,236
2016-04-16T05:54:09.098Z,192
2016-04-16T05:55:09.006Z,188
2016-04-16T05:56:09.025Z,192
2016-04-16T05:57:09.044Z,224
2016-04-16T05:58:09.077Z,288
2016-04-16T05:59:09.174Z,348
2016-04-16T06:00:09.207Z,380
2016-04-16T06:01:09.211Z,376
2016-04-16T06:02:09.213Z,496
2016-04-16T06:03:09.169Z,524
2016-04-16T06:04:09.202Z,528
2016-04-16T06:05:09.205Z,576
2016-04-16T06:06:09.333Z,600
2016-04-16T06:07:09.257Z,588
2016-04-16T06:08:09.479Z,612
2016-04-16T06:09:09.294Z,628
2016-04-16T06:10:09.312Z,620
2016-04-16T06:11:09.346Z,644
2016-04-16T06:12:09.427Z,652
2016-04-16T06:13:09.446Z,672
2016-04-16T06:14:09.590Z,712
2016-04-16T06:15:09.435Z,720
2016-04-16T06:16:09.438Z,732
2016-04-16T06:17:09.457Z,764
2016-04-16T06:18:09.476Z,760
2016-04-16T06:19:09.509Z,768
2016-04-16T06:20:09.527Z,804
2016-04-16T06:21:09.904Z,832
2016-04-16T06:22:09.564Z,844
2016-04-16T06:23:09.581Z,840
2016-04-16T06:24:09.601Z,848
2016-04-16T06:25:09.619Z,848
2016-04-16T06:26:09.653Z,808
2016-04-16T06:27:09.687Z,792
2016-04-16T06:28:09.689Z,792
2016-04-16T06:29:09.722Z,864
2016-04-16T06:30:09.726Z,936
2016-04-16T06:31:09.744Z,948
2016-04-16T06:32:09.778Z,936
2016-04-16T06:33:09.780Z,924
2016-04-16T06:34:09.814Z,912
2016-04-16T06:35:09.833Z,880
2016-04-16T06:36:09.866Z,864
2016-04-16T06:37:09.870Z,860
2016-04-16T06:38:10.185Z,856
2016-04-16T06:39:09.922Z,860
2016-04-16T06:40:09.924Z,880
2016-04-16T06:41:09.958Z,896
2016-04-16T06:42:09.977Z,912
2016-04-16T06:43:09.996Z,928
2016-04-16T06:44:10.061Z,948
2016-04-16T06:45:10.032Z,960
2016-04-16T06:46:10.066Z,964
2016-04-16T06:47:10.146Z,976
2016-04-16T06:48:10.102Z,996
2016-04-16T06:49:09.965Z,1016
2016-04-16T06:50:09.982Z,1016
2016-04-16T06:51:10.142Z,1008
2016-04-16T06:52:10.176Z,996
2016-04-16T06:53:10.210Z,988
2016-04-16T06:54:10.243Z,980
2016-04-16T06:55:10.262Z,968
2016-04-16T06:56:10.281Z,948
2016-04-16T06:57:10.314Z,944
2016-04-16T06:58:10.317Z,972
2016-04-16T06:59:10.336Z,1004
2016-04-16T07:00:10.213Z,1004
2016-04-16T07:01:10.387Z,976
2016-04-16T07:02:10.390Z,928
2016-04-16T07:03:10.424Z,884
2016-04-16T07:04:10.442Z,856
2016-04-16T07:05:10.461Z,852
2016-04-16T07:06:10.400Z,884
2016-04-16T07:07:10.497Z,944
2016-04-16T07:08:10.516Z,996
2016-04-16T07:09:10.580Z,1012
2016-04-16T07:10:10.568Z,1068
2016-04-16T07:11:10.585Z,1040
2016-04-16T07:12:10.652Z,996
2016-04-16T07:13:10.655Z,904
2016-04-16T07:14:10.640Z,832
2016-04-16T07:15:10.660Z,772
2016-04-16T07:16:10.693Z,716
2016-04-16T07:17:10.712Z,672
2016-04-16T07:18:10.746Z,608
2016-04-16T07:19:10.764Z,588
2016-04-16T07:20:10.767Z,616
2016-04-16T07:21:10.675Z,608
2016-04-16T07:22:11.209Z,620
2016-04-16T07:23:10.837Z,596
2016-04-16T07:24:10.870Z,660
2016-04-16T07:25:10.873Z,672
2016-04-16T07:26:10.908Z,660
2016-04-16T07:27:10.957Z,692
2016-04-16T07:28:10.991Z,756
2016-04-16T07:29:10.994Z,788
2016-04-16T07:30:11.012Z,836
2016-04-16T07:31:11.015Z,852
2016-04-16T07:32:11.081Z,884
2016-04-16T07:33:11.067Z,888
2016-04-16T07:34:11.086Z,916
2016-04-16T07:35:11.103Z,912
2016-04-16T07:36:11.169Z,964
2016-04-16T07:37:11.188Z,1068
2016-04-16T07:38:11.174Z,1124
2016-04-16T07:39:11.177Z,1192
2016-04-16T07:40:11.195Z,1272
2016-04-16T07:41:11.229Z,1288
2016-04-16T07:42:11.248Z,1272
2016-04-16T07:43:11.265Z,1332
2016-04-16T07:44:11.284Z,1448
2016-04-16T07:45:11.318Z,1508
2016-04-16T07:46:11.337Z,1584
2016-04-16T07:47:11.355Z,1780
2016-04-16T07:48:11.374Z,1860
2016-04-16T07:49:11.391Z,1852
2016-04-16T07:50:11.426Z,1816
2016-04-16T07:51:11.428Z,1768
2016-04-16T07:52:11.462Z,1752
2016-04-16T07:53:11.481Z,1740
2016-04-16T07:54:11.499Z,1736
2016-04-16T07:55:11.579Z,1660
2016-04-16T07:56:11.660Z,1576
2016-04-16T07:57:11.570Z,1512
2016-04-16T07:58:11.698Z,1388
2016-04-16T07:59:11.746Z,1292
2016-04-16T08:00:11.764Z,1220
2016-04-16T08:01:11.643Z,1184
2016-04-16T08:02:11.676Z,1208
2016-04-16T08:03:11.694Z,1236
2016-04-16T08:04:11.713Z,1256
2016-04-16T08:05:11.731Z,1264
2016-04-16T08:06:11.766Z,1244
2016-04-16T08:07:11.783Z,1284
2016-04-16T08:08:11.802Z,1280
2016-04-16T08:09:11.820Z,1272
2016-04-16T08:10:11.839Z,1288
2016-04-16T08:11:11.872Z,1252
2016-04-16T08:12:11.891Z,1252
2016-04-16T08:13:11.924Z,1256
2016-04-16T08:14:11.787Z,1284
2016-04-16T08:15:11.946Z,1344
2016-04-16T08:16:11.995Z,1360
2016-04-16T08:17:12.004Z,1420
2016-04-16T08:18:12.021Z,1492
2016-04-16T08:19:12.055Z,1504
2016-04-16T08:20:12.074Z,1476
2016-04-16T08:21:12.092Z,1432
2016-04-16T08:22:12.109Z,1472
2016-04-16T08:23:12.129Z,1512
2016-04-16T08:24:12.147Z,1452
2016-04-16T08:25:12.196Z,1296
2016-04-16T08:26:12.198Z,1368
2016-04-16T08:27:12.217Z,1320
2016-04-16T08:28:12.236Z,1304
2016-04-16T08:29:12.253Z,1316
2016-04-16T08:30:12.288Z,1292
2016-04-16T08:31:12.306Z,1248
2016-04-16T08:32:12.340Z,1240
2016-04-16T08:33:12.358Z,1264
2016-04-16T08:34:12.361Z,1232
2016-04-16T08:35:12.395Z,1196
2016-04-16T08:36:12.413Z,1148
2016-04-16T08:37:12.432Z,1228
2016-04-16T08:38:12.575Z,1252
2016-04-16T08:39:12.577Z,1240
2016-04-16T08:40:12.611Z,1244
2016-04-16T08:41:12.630Z,1252
2016-04-16T08:42:12.632Z,1268
2016-04-16T08:43:12.635Z,1284
2016-04-16T08:44:12.482Z,1316
2016-04-16T08:45:12.641Z,1320
2016-04-16T08:46:12.660Z,1396
2016-04-16T08:47:12.724Z,1412
2016-04-16T08:48:12.727Z,1412
2016-04-16T08:49:12.729Z,1408
2016-04-16T08:50:12.763Z,1424
2016-04-16T08:51:12.751Z,1424
2016-04-16T08:52:12.879Z,1400
2016-04-16T08:53:12.881Z,1400
2016-04-16T08:54:12.884Z,1372
2016-04-16T08:55:12.918Z,1392
2016-04-16T08:56:12.936Z,1392
2016-04-16T08:57:12.923Z,1372
2016-04-16T08:58:12.956Z,1344
2016-04-16T08:59:12.944Z,1316
2016-04-16T09:00:12.930Z,1292
2016-04-16T09:01:12.965Z,1284
2016-04-16T09:02:12.999Z,1300
2016-04-16T09:03:12.111Z,1340
2016-04-16T09:04:13.036Z,1404
2016-04-16T09:05:13.069Z,1472
2016-04-16T09:06:13.072Z,1540
2016-04-16T09:07:13.091Z,1612
2016-04-16T09:08:13.125Z,1660
2016-04-16T09:09:13.252Z,1660
2016-04-16T09:10:13.271Z,1616
2016-04-16T09:11:13.273Z,1624
2016-04-16T09:12:13.291Z,1584
2016-04-16T09:13:13.419Z,1640
2016-04-16T09:14:13.437Z,1624
2016-04-16T09:15:13.440Z,1624
2016-04-16T09:16:13.427Z,1604
2016-04-16T09:17:13.461Z,1616
2016-04-16T09:18:13.449Z,1624
2016-04-16T09:19:13.465Z,1692
2016-04-16T09:20:13.468Z,1704
2016-04-16T09:21:13.471Z,1808
2016-04-16T09:22:13.615Z,1728
2016-04-16T09:23:13.617Z,1720
2016-04-16T09:24:13.637Z,1644
2016-04-16T09:25:13.607Z,1612
2016-04-16T09:26:13.595Z,1592
2016-04-16T09:27:13.597Z,1536
2016-04-16T09:28:13.647Z,1540
2016-04-16T09:29:13.650Z,1568
2016-04-16T09:30:13.653Z,1660
2016-04-16T09:31:13.656Z,1732
2016-04-16T09:32:13.673Z,1848
2016-04-16T09:33:13.692Z,1964
2016-04-16T09:34:13.694Z,2064
2016-04-16T09:35:13.713Z,2144
2016-04-16T09:36:13.746Z,2184
2016-04-16T09:37:13.749Z,2200
2016-04-16T09:38:13.783Z,2212
2016-04-16T09:39:13.786Z,2220
2016-04-16T09:40:13.836Z,2236
2016-04-16T09:41:13.854Z,2240
2016-04-16T09:42:13.857Z,2284
2016-04-16T09:43:13.874Z,2256
2016-04-16T09:44:13.924Z,2240
2016-04-16T09:45:13.926Z,2280
2016-04-16T09:46:13.960Z,2364
2016-04-16T09:47:13.995Z,2416
2016-04-16T09:48:13.998Z,2400
2016-04-16T09:49:14.031Z,2396
2016-04-16T09:50:14.049Z,2448
2016-04-16T09:51:14.068Z,2564
2016-04-16T09:52:14.118Z,2692
2016-04-16T09:53:14.105Z,2832
2016-04-16T09:54:14.123Z,2740
2016-04-16T09:55:14.001Z,2736
2016-04-16T09:56:14.175Z,2872
2016-04-16T09:57:14.225Z,3020
2016-04-16T09:58:14.228Z,3024
2016-04-16T09:59:14.245Z,2784
2016-04-16T10:00:14.467Z,2196
2016-04-16T10:01:14.360Z,1952
2016-04-16T10:02:14.504Z,1996
2016-04-16T10:03:14.523Z,2176
2016-04-16T10:04:14.541Z,2324
2016-04-16T10:05:14.543Z,2128
2016-04-16T10:06:14.530Z,2256
2016-04-16T10:07:14.533Z,2272
2016-04-16T10:08:14.567Z,2420
2016-04-16T10:09:14.586Z,2604
2016-04-16T10:10:14.572Z,2712
2016-04-16T10:11:14.419Z,2480
2016-04-16T10:12:14.625Z,1716
2016-04-16T10:13:14.580Z,1152
2016-04-16T10:14:14.583Z,676
2016-04-16T10:15:14.602Z,440
2016-04-16T10:16:14.620Z,400
2016-04-16T10:17:14.654Z,660
2016-04-16T10:18:14.672Z,816
2016-04-16T10:19:14.690Z,1448
2016-04-16T10:20:14.724Z,2004
2016-04-16T10:21:14.742Z,1588
2016-04-16T10:22:14.760Z,964
2016-04-16T10:23:14.779Z,632
2016-04-16T10:24:14.813Z,700
2016-04-16T10:25:14.863Z,1208
2016-04-16T10:26:14.850Z,1392
2016-04-16T10:27:14.884Z,1460
2016-04-16T10:28:14.901Z,1840
2016-04-16T10:29:14.920Z,1776
2016-04-16T10:30:14.953Z,1784
2016-04-16T10:31:14.972Z,1904
2016-04-16T10:32:15.006Z,1936
2016-04-16T10:33:15.009Z,1540
2016-04-16T10:34:15.042Z,1392
2016-04-16T10:35:15.061Z,1504
2016-04-16T10:36:15.095Z,1536
2016-04-16T10:37:15.098Z,1428
2016-04-16T10:38:15.117Z,1480
2016-04-16T10:39:15.135Z,1572
2016-04-16T10:40:15.169Z,1516
2016-04-16T10:41:15.202Z,1548
2016-04-16T10:42:15.221Z,1508
2016-04-16T10:43:15.239Z,1544
2016-04-16T10:44:15.258Z,1668
2016-04-16T10:45:15.291Z,1740
2016-04-16T10:46:15.294Z,1964
2016-04-16T10:47:15.328Z,2272
2016-04-16T10:48:15.346Z,2308
2016-04-16T10:49:15.380Z,2152
2016-04-16T10:50:15.398Z,2020
2016-04-16T10:51:15.526Z,2064
2016-04-16T10:52:15.544Z,2068
2016-04-16T10:53:15.578Z,2028
2016-04-16T10:54:15.581Z,1888
2016-04-16T10:55:15.599Z,1844
2016-04-16T10:56:15.601Z,2024
2016-04-16T10:57:15.604Z,1932
2016-04-16T10:58:15.607Z,1868
2016-04-16T10:59:15.626Z,1672
2016-04-16T11:00:15.629Z,1528
2016-04-16T11:01:15.757Z,1472
2016-04-16T11:02:15.775Z,1324
2016-04-16T11:03:15.715Z,1052
2016-04-16T11:04:15.811Z,1372
2016-04-16T11:05:15.830Z,1376
2016-04-16T11:06:15.832Z,808
2016-04-16T11:07:15.881Z,568
2016-04-16T11:08:15.806Z,620
2016-04-16T11:09:15.825Z,660
2016-04-16T11:10:15.844Z,972
2016-04-16T11:11:15.877Z,1416
2016-04-16T11:12:15.911Z,1528
2016-04-16T11:13:15.913Z,1476
2016-04-16T11:14:15.963Z,1384
2016-04-16T11:15:15.965Z,1288
2016-04-16T11:16:16.202Z,1244
2016-04-16T11:17:15.846Z,1200
2016-04-16T11:18:16.021Z,1164
2016-04-16T11:19:16.085Z,1160
2016-04-16T11:20:16.104Z,1228
2016-04-16T11:21:15.935Z,1288
2016-04-16T11:22:16.157Z,1292
2016-04-16T11:23:16.190Z,1304
2016-04-16T11:24:16.193Z,1332
2016-04-16T11:25:16.196Z,1328
2016-04-16T11:26:16.214Z,1328
2016-04-16T11:27:16.232Z,1284
2016-04-16T11:28:16.282Z,1260
2016-04-16T11:29:16.284Z,1220
2016-04-16T11:30:16.318Z,1152
2016-04-16T11:31:16.336Z,1068
2016-04-16T11:32:16.356Z,1008
2016-04-16T11:33:16.373Z,976
2016-04-16T11:34:16.392Z,1008
2016-04-16T11:35:16.411Z,1056
2016-04-16T11:36:16.428Z,1080
2016-04-16T11:37:16.634Z,1132
2016-04-16T11:38:16.497Z,1216
2016-04-16T11:39:16.499Z,1332
2016-04-16T11:40:16.642Z,1424
2016-04-16T11:41:16.645Z,1456
2016-04-16T11:42:16.679Z,1512
2016-04-16T11:43:16.697Z,1572
2016-04-16T11:44:16.622Z,1600
2016-04-16T11:45:16.640Z,1632
2016-04-16T11:46:16.674Z,1672
2016-04-16T11:47:16.693Z,1740
2016-04-16T11:48:16.710Z,1796
2016-04-16T11:49:16.729Z,1820
2016-04-16T11:50:17.091Z,1864
2016-04-16T11:51:17.153Z,1896
2016-04-16T11:52:17.153Z,2012
2016-04-16T11:53:16.966Z,2164
2016-04-16T11:54:17.074Z,2128
2016-04-16T11:55:17.090Z,2048
2016-04-16T11:56:17.172Z,2184
2016-04-16T11:57:17.018Z,2416
2016-04-16T11:58:17.208Z,2540
2016-04-16T11:59:17.259Z,2564
2016-04-16T12:00:17.277Z,2536
2016-04-16T12:01:17.410Z,2336
2016-04-16T12:02:17.435Z,2396
2016-04-16T12:03:17.631Z,2980
2016-04-16T12:04:17.607Z,3192
2016-04-16T12:05:17.523Z,3512
2016-04-16T12:06:17.636Z,3576
2016-04-16T12:07:17.375Z,3800
2016-04-16T12:08:17.663Z,3812
2016-04-16T12:09:17.651Z,3308
2016-04-16T12:10:17.657Z,3244
2016-04-16T12:11:17.660Z,2848
2016-04-16T12:12:17.680Z,2504
2016-04-16T12:13:17.823Z,2580
2016-04-16T12:14:17.858Z,2308
2016-04-16T12:15:17.783Z,2044
2016-04-16T12:16:17.755Z,2116
2016-04-16T12:17:17.805Z,1684
2016-04-16T12:18:17.809Z,1528
2016-04-16T12:19:17.811Z,1532
2016-04-16T12:20:17.862Z,1520
2016-04-16T12:21:17.880Z,1528
2016-04-16T12:22:17.898Z,1536
2016-04-16T12:23:17.885Z,1532
2016-04-16T12:24:17.888Z,1524
2016-04-16T12:25:17.891Z,1488
2016-04-16T12:26:17.925Z,1500
2016-04-16T12:27:17.942Z,1620
2016-04-16T12:28:17.961Z,1752
2016-04-16T12:29:17.980Z,1876
2016-04-16T12:30:18.013Z,1992
2016-04-16T12:31:18.032Z,2056
2016-04-16T12:32:18.050Z,1968
2016-04-16T12:33:18.084Z,1908
2016-04-16T12:34:18.102Z,2096
2016-04-16T12:35:18.151Z,2508
2016-04-16T12:36:18.155Z,2736
2016-04-16T12:37:18.251Z,2548
2016-04-16T12:38:18.191Z,2120
2016-04-16T12:39:18.225Z,1760
2016-04-16T12:40:18.259Z,1660
2016-04-16T12:41:18.262Z,1844
2016-04-16T12:42:18.296Z,2188
2016-04-16T12:43:18.298Z,2420
2016-04-16T12:44:18.348Z,2628
2016-04-16T12:45:18.351Z,3036
2016-04-16T12:46:18.384Z,3504
2016-04-16T12:47:18.387Z,3872
2016-04-16T12:48:18.420Z,3900
2016-04-16T12:49:18.440Z,3732
2016-04-16T12:50:18.458Z,3444
2016-04-16T12:51:18.476Z,3164
2016-04-16T12:52:18.510Z,2732
2016-04-16T12:53:18.528Z,2112
2016-04-16T12:54:18.406Z,1952
2016-04-16T12:55:18.564Z,2472
2016-04-16T12:56:18.614Z,3504
2016-04-16T12:57:18.617Z,4244
2016-04-16T12:58:18.682Z,4228
2016-04-16T12:59:18.778Z,4348
2016-04-16T13:00:18.781Z,4116
2016-04-16T13:01:18.800Z,4312
2016-04-16T13:02:18.849Z,4536
2016-04-16T13:03:18.852Z,4132
2016-04-16T13:04:18.823Z,3396
2016-04-16T13:05:18.810Z,3112
2016-04-16T13:06:18.844Z,2748
2016-04-16T13:07:18.863Z,2168
2016-04-16T13:08:18.881Z,2296
2016-04-16T13:09:18.930Z,1912
2016-04-16T13:10:18.949Z,2100
2016-04-16T13:11:18.951Z,2848
2016-04-16T13:12:18.985Z,2692
2016-04-16T13:13:18.988Z,2704
2016-04-16T13:14:19.006Z,2632
2016-04-16T13:15:19.041Z,2780
2016-04-16T13:16:19.074Z,3308
2016-04-16T13:17:19.092Z,3360
2016-04-16T13:18:19.111Z,3184
2016-04-16T13:19:19.129Z,3096
2016-04-16T13:20:19.164Z,2900
2016-04-16T13:21:19.198Z,2984
2016-04-16T13:22:19.200Z,2352
2016-04-16T13:23:19.218Z,2112
2016-04-16T13:24:19.268Z,2836
2016-04-16T13:25:19.286Z,3284
2016-04-16T13:26:19.305Z,2896
2016-04-16T13:27:19.354Z,2416
2016-04-16T13:28:19.356Z,2904
2016-04-16T13:29:19.375Z,3456
2016-04-16T13:30:19.580Z,3852
2016-04-16T13:31:19.568Z,3656
2016-04-16T13:32:19.586Z,3552
2016-04-16T13:33:19.573Z,3164
2016-04-16T13:34:19.607Z,2884
2016-04-16T13:35:19.594Z,3596
2016-04-16T13:36:19.753Z,4080
2016-04-16T13:37:19.756Z,3508
2016-04-16T13:38:19.758Z,2648
2016-04-16T13:39:19.840Z,2548
2016-04-16T13:40:19.732Z,2800
2016-04-16T13:41:19.735Z,2728
2016-04-16T13:42:19.816Z,2428
2016-04-16T13:43:19.771Z,2284
2016-04-16T13:44:19.822Z,2252
2016-04-16T13:45:19.777Z,2444
2016-04-16T13:46:19.968Z,2284
2016-04-16T13:47:19.815Z,2160
2016-04-16T13:48:19.817Z,2176
2016-04-16T13:49:19.851Z,2368
2016-04-16T13:50:19.884Z,2596
2016-04-16T13:51:19.903Z,2552